sensor_id;sensor_type;location;lat;lon;timestamp;temperature;humidity
1994;DHT22;998;49.906;10.908;2023-05-01T00:02:02;13.40;98.90
1994;DHT22;998;49.906;10.908;2023-05-01T00:04:32;13.40;99.40
1994;DHT22;998;49.906;10.908;2023-05-01T00:07:00;13.30;99.90
1994;DHT22;998;49.906;10.908;2023-05-01T00:09:27;13.40;99.90
1994;DHT22;998;49.906;10.908;2023-05-01T00:11:55;13.30;99.80
1994;DHT22;998;49.906;10.908;2023-05-01T00:14:22;13.20;99.90
1994;DHT22;998;49.906;10.908;2023-05-01T00:16:51;13.10;99.90
1994;DHT22;998;49.906;10.908;2023-05-01T00:19:18;13.10;99.90
1994;DHT22;998;49.906;10.908;2023-05-01T00:21:46;13.00;99.90
1994;DHT22;998;49.906;10.908;2023-05-01T00:24:13;12.90;99.90
1994;DHT22;998;49.906;10.908;2023-05-01T00:26:41;13.00;99.90
1994;DHT22;998;49.906;10.908;2023-05-01T00:29:08;13.10;99.90
1994;DHT22;998;49.906;10.908;2023-05-01T00:31:36;13.00;99.90
1994;DHT22;998;49.906;10.908;2023-05-01T00:34:05;13.20;99.90
1994;DHT22;998;49.906;10.908;2023-05-01T00:36:32;13.20;99.90
1994;DHT22;998;49.906;10.908;2023-05-01T00:38:59;13.20;99.90
1994;DHT22;998;49.906;10.908;2023-05-01T00:41:27;13.10;99.90
1994;DHT22;998;49.906;10.908;2023-05-01T00:43:54;13.20;99.90
1994;DHT22;998;49.906;10.908;2023-05-01T00:46:23;13.30;99.90
1994;DHT22;998;49.906;10.908;2023-05-01T00:48:51;13.20;99.90
1994;DHT22;998;49.906;10.908;2023-05-01T00:51:20;13.30;99.90
1994;DHT22;998;49.906;10.908;2023-05-01T00:53:48;13.30;99.90
1994;DHT22;998;49.906;10.908;2023-05-01T00:56:15;13.40;99.90
1994;DHT22;998;49.906;10.908;2023-05-01T00:58:44;13.30;99.90
1994;DHT22;998;49.906;10.908;2023-05-01T01:01:13;13.10;99.90
1994;DHT22;998;49.906;10.908;2023-05-01T01:03:40;13.20;99.90
1994;DHT22;998;49.906;10.908;2023-05-01T01:06:12;13.10;99.90
1994;DHT22;998;49.906;10.908;2023-05-01T01:08:48;13.20;99.90
1994;DHT22;998;49.906;10.908;2023-05-01T01:11:23;13.20;99.90
1994;DHT22;998;49.906;10.908;2023-05-01T01:13:59;13.20;99.90
1994;DHT22;998;49.906;10.908;2023-05-01T01:16:33;13.10;99.90
1994;DHT22;998;49.906;10.908;2023-05-01T01:19:24;13.10;99.90
1994;DHT22;998;49.906;10.908;2023-05-01T01:22:01;13.00;99.90
1994;DHT22;998;49.906;10.908;2023-05-01T01:24:47;13.00;99.90
1994;DHT22;998;49.906;10.908;2023-05-01T01:27:35;13.00;99.90
1994;DHT22;998;49.906;10.908;2023-05-01T01:33:21;12.70;99.90
1994;DHT22;998;49.906;10.908;2023-05-01T01:35:56;12.70;99.90
1994;DHT22;998;49.906;10.908;2023-05-01T01:38:29;12.60;99.90
1994;DHT22;998;49.906;10.908;2023-05-01T01:41:08;12.50;99.90
1994;DHT22;998;49.906;10.908;2023-05-01T01:43:39;12.40;99.90
1994;DHT22;998;49.906;10.908;2023-05-01T01:46:07;12.40;99.90
1994;DHT22;998;49.906;10.908;2023-05-01T01:48:40;12.40;99.90
1994;DHT22;998;49.906;10.908;2023-05-01T01:51:12;12.30;99.90
1994;DHT22;998;49.906;10.908;2023-05-01T01:53:44;12.30;99.90
1994;DHT22;998;49.906;10.908;2023-05-01T01:56:13;12.20;99.90
1994;DHT22;998;49.906;10.908;2023-05-01T01:58:42;12.20;99.90
1994;DHT22;998;49.906;10.908;2023-05-01T02:01:12;12.20;99.90
1994;DHT22;998;49.906;10.908;2023-05-01T02:03:41;12.20;99.90
1994;DHT22;998;49.906;10.908;2023-05-01T02:06:12;12.20;99.90
1994;DHT22;998;49.906;10.908;2023-05-01T02:08:41;12.40;99.90
1994;DHT22;998;49.906;10.908;2023-05-01T02:11:10;12.30;99.90
1994;DHT22;998;49.906;10.908;2023-05-01T02:13:40;12.30;99.90
1994;DHT22;998;49.906;10.908;2023-05-01T02:16:09;12.20;99.90
1994;DHT22;998;49.906;10.908;2023-05-01T02:18:37;12.20;99.90
1994;DHT22;998;49.906;10.908;2023-05-01T02:21:06;12.30;99.90
1994;DHT22;998;49.906;10.908;2023-05-01T02:23:35;12.20;99.90
1994;DHT22;998;49.906;10.908;2023-05-01T02:26:03;12.30;99.90
1994;DHT22;998;49.906;10.908;2023-05-01T02:28:33;12.40;99.90
1994;DHT22;998;49.906;10.908;2023-05-01T02:31:01;12.30;99.90
1994;DHT22;998;49.906;10.908;2023-05-01T02:33:28;12.20;99.90
1994;DHT22;998;49.906;10.908;2023-05-01T02:35:56;12.20;99.90
1994;DHT22;998;49.906;10.908;2023-05-01T02:38:23;12.30;99.90
1994;DHT22;998;49.906;10.908;2023-05-01T02:40:56;12.30;99.90
1994;DHT22;998;49.906;10.908;2023-05-01T02:43:26;12.30;99.90
1994;DHT22;998;49.906;10.908;2023-05-01T02:45:54;12.30;99.90
1994;DHT22;998;49.906;10.908;2023-05-01T02:48:26;12.20;99.90
1994;DHT22;998;49.906;10.908;2023-05-01T02:50:54;12.30;99.90
1994;DHT22;998;49.906;10.908;2023-05-01T02:53:22;12.30;99.90
1994;DHT22;998;49.906;10.908;2023-05-01T02:55:50;12.10;99.90
1994;DHT22;998;49.906;10.908;2023-05-01T02:58:19;12.10;99.90
1994;DHT22;998;49.906;10.908;2023-05-01T03:00:48;12.10;99.90
1994;DHT22;998;49.906;10.908;2023-05-01T03:03:15;12.20;99.90
1994;DHT22;998;49.906;10.908;2023-05-01T03:05:43;12.20;99.90
1994;DHT22;998;49.906;10.908;2023-05-01T03:08:10;12.20;99.90
1994;DHT22;998;49.906;10.908;2023-05-01T03:10:39;12.20;99.90
1994;DHT22;998;49.906;10.908;2023-05-01T03:13:07;12.10;99.90
1994;DHT22;998;49.906;10.908;2023-05-01T03:15:36;12.00;99.90
1994;DHT22;998;49.906;10.908;2023-05-01T03:18:04;12.10;99.90
1994;DHT22;998;49.906;10.908;2023-05-01T03:20:31;12.00;99.90
1994;DHT22;998;49.906;10.908;2023-05-01T03:22:59;11.90;99.90
1994;DHT22;998;49.906;10.908;2023-05-01T03:25:26;12.00;99.90
1994;DHT22;998;49.906;10.908;2023-05-01T03:27:54;12.00;99.90
1994;DHT22;998;49.906;10.908;2023-05-01T03:30:21;12.00;99.90
1994;DHT22;998;49.906;10.908;2023-05-01T03:32:50;12.00;99.90
1994;DHT22;998;49.906;10.908;2023-05-01T03:35:17;12.10;99.90
1994;DHT22;998;49.906;10.908;2023-05-01T03:37:45;12.10;99.90
1994;DHT22;998;49.906;10.908;2023-05-01T03:40:12;12.10;99.90
1994;DHT22;998;49.906;10.908;2023-05-01T03:42:40;12.10;99.90
1994;DHT22;998;49.906;10.908;2023-05-01T03:45:08;12.00;99.90
1994;DHT22;998;49.906;10.908;2023-05-01T03:47:36;12.00;99.90
1994;DHT22;998;49.906;10.908;2023-05-01T03:50:06;11.80;99.90
1994;DHT22;998;49.906;10.908;2023-05-01T03:52:33;11.80;99.90
1994;DHT22;998;49.906;10.908;2023-05-01T03:55:01;11.90;99.90
1994;DHT22;998;49.906;10.908;2023-05-01T03:57:28;11.80;99.90
1994;DHT22;998;49.906;10.908;2023-05-01T03:59:56;11.70;99.90
1994;DHT22;998;49.906;10.908;2023-05-01T04:02:23;11.70;99.90
1994;DHT22;998;49.906;10.908;2023-05-01T04:04:51;11.70;99.90
1994;DHT22;998;49.906;10.908;2023-05-01T04:07:20;11.70;99.90
1994;DHT22;998;49.906;10.908;2023-05-01T04:09:47;11.70;99.90
1994;DHT22;998;49.906;10.908;2023-05-01T04:12:15;11.70;99.90
1994;DHT22;998;49.906;10.908;2023-05-01T04:14:42;11.80;99.90
1994;DHT22;998;49.906;10.908;2023-05-01T04:17:10;11.70;99.90
1994;DHT22;998;49.906;10.908;2023-05-01T04:19:37;11.70;99.90
1994;DHT22;998;49.906;10.908;2023-05-01T04:22:06;11.70;99.90
1994;DHT22;998;49.906;10.908;2023-05-01T04:24:34;11.70;99.90
1994;DHT22;998;49.906;10.908;2023-05-01T04:27:02;11.70;99.90
1994;DHT22;998;49.906;10.908;2023-05-01T04:29:30;11.60;99.90
1994;DHT22;998;49.906;10.908;2023-05-01T04:31:58;11.50;99.90
1994;DHT22;998;49.906;10.908;2023-05-01T04:34:25;11.50;99.90
1994;DHT22;998;49.906;10.908;2023-05-01T04:36:54;11.50;99.90
1994;DHT22;998;49.906;10.908;2023-05-01T04:39:22;11.60;99.90
1994;DHT22;998;49.906;10.908;2023-05-01T04:41:51;11.50;99.90
1994;DHT22;998;49.906;10.908;2023-05-01T04:44:18;11.50;99.90
1994;DHT22;998;49.906;10.908;2023-05-01T04:46:45;11.50;99.90
1994;DHT22;998;49.906;10.908;2023-05-01T04:49:13;11.50;99.90
1994;DHT22;998;49.906;10.908;2023-05-01T04:51:40;11.50;99.90
1994;DHT22;998;49.906;10.908;2023-05-01T04:54:08;11.60;99.90
1994;DHT22;998;49.906;10.908;2023-05-01T04:56:35;11.60;99.90
1994;DHT22;998;49.906;10.908;2023-05-01T04:59:04;11.60;99.90
1994;DHT22;998;49.906;10.908;2023-05-01T05:01:32;11.60;99.90
1994;DHT22;998;49.906;10.908;2023-05-01T05:03:59;11.60;99.90
1994;DHT22;998;49.906;10.908;2023-05-01T05:06:26;11.70;99.90
1994;DHT22;998;49.906;10.908;2023-05-01T05:08:54;11.70;99.90
1994;DHT22;998;49.906;10.908;2023-05-01T05:11:22;11.70;99.90
1994;DHT22;998;49.906;10.908;2023-05-01T05:13:50;11.80;99.90
1994;DHT22;998;49.906;10.908;2023-05-01T05:16:18;11.80;99.90
1994;DHT22;998;49.906;10.908;2023-05-01T05:18:46;11.80;99.90
1994;DHT22;998;49.906;10.908;2023-05-01T05:21:13;11.80;99.90
1994;DHT22;998;49.906;10.908;2023-05-01T05:23:40;11.90;99.90
1994;DHT22;998;49.906;10.908;2023-05-01T05:26:08;12.00;99.90
1994;DHT22;998;49.906;10.908;2023-05-01T05:28:35;12.00;99.90
1994;DHT22;998;49.906;10.908;2023-05-01T05:31:02;12.10;99.90
1994;DHT22;998;49.906;10.908;2023-05-01T05:33:31;12.10;99.90
1994;DHT22;998;49.906;10.908;2023-05-01T05:35:59;12.20;99.90
1994;DHT22;998;49.906;10.908;2023-05-01T05:38:26;12.30;99.90
1994;DHT22;998;49.906;10.908;2023-05-01T05:40:53;12.30;99.90
1994;DHT22;998;49.906;10.908;2023-05-01T05:43:21;12.30;99.90
1994;DHT22;998;49.906;10.908;2023-05-01T05:45:48;12.30;99.90
1994;DHT22;998;49.906;10.908;2023-05-01T05:48:15;12.30;99.90
1994;DHT22;998;49.906;10.908;2023-05-01T05:50:44;12.30;99.90
1994;DHT22;998;49.906;10.908;2023-05-01T05:53:11;12.40;99.90
1994;DHT22;998;49.906;10.908;2023-05-01T05:55:39;12.30;99.90
1994;DHT22;998;49.906;10.908;2023-05-01T05:58:08;12.30;99.90
1994;DHT22;998;49.906;10.908;2023-05-01T06:00:36;12.30;99.90
1994;DHT22;998;49.906;10.908;2023-05-01T06:03:03;12.40;99.90
1994;DHT22;998;49.906;10.908;2023-05-01T06:05:31;12.40;99.90
1994;DHT22;998;49.906;10.908;2023-05-01T06:08:01;12.40;99.90
1994;DHT22;998;49.906;10.908;2023-05-01T06:10:28;12.50;99.90
1994;DHT22;998;49.906;10.908;2023-05-01T06:12:56;12.60;99.90
1994;DHT22;998;49.906;10.908;2023-05-01T06:15:24;12.60;99.90
1994;DHT22;998;49.906;10.908;2023-05-01T06:17:51;12.70;99.90
1994;DHT22;998;49.906;10.908;2023-05-01T06:20:19;12.60;99.90
1994;DHT22;998;49.906;10.908;2023-05-01T06:22:46;12.60;99.90
1994;DHT22;998;49.906;10.908;2023-05-01T06:25:15;12.70;99.90
1994;DHT22;998;49.906;10.908;2023-05-01T06:27:42;12.80;99.90
1994;DHT22;998;49.906;10.908;2023-05-01T06:30:10;12.80;99.90
1994;DHT22;998;49.906;10.908;2023-05-01T06:32:38;12.80;99.90
1994;DHT22;998;49.906;10.908;2023-05-01T06:35:07;12.90;99.90
1994;DHT22;998;49.906;10.908;2023-05-01T06:37:35;12.80;99.70
1994;DHT22;998;49.906;10.908;2023-05-01T06:40:03;12.90;99.90
1994;DHT22;998;49.906;10.908;2023-05-01T06:42:32;12.90;99.90
1994;DHT22;998;49.906;10.908;2023-05-01T06:45:00;12.90;99.90
1994;DHT22;998;49.906;10.908;2023-05-01T06:47:28;12.90;99.90
1994;DHT22;998;49.906;10.908;2023-05-01T06:49:55;12.80;99.90
1994;DHT22;998;49.906;10.908;2023-05-01T06:52:23;12.80;99.90
1994;DHT22;998;49.906;10.908;2023-05-01T06:54:50;12.90;99.90
1994;DHT22;998;49.906;10.908;2023-05-01T06:57:18;12.80;99.70
1994;DHT22;998;49.906;10.908;2023-05-01T06:59:46;12.90;99.90
1994;DHT22;998;49.906;10.908;2023-05-01T07:02:13;12.90;99.90
1994;DHT22;998;49.906;10.908;2023-05-01T07:04:40;13.00;99.70
1994;DHT22;998;49.906;10.908;2023-05-01T07:07:09;13.10;99.90
1994;DHT22;998;49.906;10.908;2023-05-01T07:09:36;13.10;99.40
1994;DHT22;998;49.906;10.908;2023-05-01T07:12:04;13.10;98.60
1994;DHT22;998;49.906;10.908;2023-05-01T07:14:33;13.20;98.80
1994;DHT22;998;49.906;10.908;2023-05-01T07:17:02;13.20;99.50
1994;DHT22;998;49.906;10.908;2023-05-01T07:19:30;13.30;99.90
1994;DHT22;998;49.906;10.908;2023-05-01T07:21:58;13.40;99.90
1994;DHT22;998;49.906;10.908;2023-05-01T07:24:25;13.40;99.90
1994;DHT22;998;49.906;10.908;2023-05-01T07:26:52;13.40;99.90
1994;DHT22;998;49.906;10.908;2023-05-01T07:29:21;13.50;99.20
1994;DHT22;998;49.906;10.908;2023-05-01T07:31:48;13.50;99.90
1994;DHT22;998;49.906;10.908;2023-05-01T07:34:16;13.60;99.90
1994;DHT22;998;49.906;10.908;2023-05-01T07:36:44;13.60;99.90
1994;DHT22;998;49.906;10.908;2023-05-01T07:39:11;13.60;99.90
1994;DHT22;998;49.906;10.908;2023-05-01T07:41:39;13.60;99.80
1994;DHT22;998;49.906;10.908;2023-05-01T07:44:07;13.70;99.90
1994;DHT22;998;49.906;10.908;2023-05-01T07:46:34;13.70;99.50
1994;DHT22;998;49.906;10.908;2023-05-01T07:49:01;13.80;99.50
1994;DHT22;998;49.906;10.908;2023-05-01T07:51:30;13.70;98.80
1994;DHT22;998;49.906;10.908;2023-05-01T07:53:58;13.80;99.90
1994;DHT22;998;49.906;10.908;2023-05-01T07:56:28;13.80;99.40
1994;DHT22;998;49.906;10.908;2023-05-01T07:58:56;13.80;99.70
1994;DHT22;998;49.906;10.908;2023-05-01T08:01:23;13.80;99.40
1994;DHT22;998;49.906;10.908;2023-05-01T08:03:50;13.90;99.70
1994;DHT22;998;49.906;10.908;2023-05-01T08:06:18;14.00;99.20
1994;DHT22;998;49.906;10.908;2023-05-01T08:08:46;14.00;99.90
1994;DHT22;998;49.906;10.908;2023-05-01T08:11:13;14.10;99.90
1994;DHT22;998;49.906;10.908;2023-05-01T08:13:41;14.20;99.90
1994;DHT22;998;49.906;10.908;2023-05-01T08:16:08;14.20;99.70
1994;DHT22;998;49.906;10.908;2023-05-01T08:18:36;14.30;99.90
1994;DHT22;998;49.906;10.908;2023-05-01T08:21:03;14.40;99.50
1994;DHT22;998;49.906;10.908;2023-05-01T08:23:30;14.40;98.80
1994;DHT22;998;49.906;10.908;2023-05-01T08:26:01;14.50;99.10
1994;DHT22;998;49.906;10.908;2023-05-01T08:28:28;14.50;99.90
1994;DHT22;998;49.906;10.908;2023-05-01T08:30:55;14.60;99.90
1994;DHT22;998;49.906;10.908;2023-05-01T08:33:23;14.60;99.90
1994;DHT22;998;49.906;10.908;2023-05-01T08:35:51;14.70;99.90
1994;DHT22;998;49.906;10.908;2023-05-01T08:38:18;14.80;99.90
1994;DHT22;998;49.906;10.908;2023-05-01T08:40:50;14.80;99.90
1994;DHT22;998;49.906;10.908;2023-05-01T08:43:20;14.70;98.40
1994;DHT22;998;49.906;10.908;2023-05-01T08:45:50;14.70;98.30
1994;DHT22;998;49.906;10.908;2023-05-01T08:48:21;14.70;98.50
1994;DHT22;998;49.906;10.908;2023-05-01T08:50:49;14.70;98.70
1994;DHT22;998;49.906;10.908;2023-05-01T08:53:18;14.70;98.40
1994;DHT22;998;49.906;10.908;2023-05-01T08:55:46;14.80;99.10
1994;DHT22;998;49.906;10.908;2023-05-01T08:58:16;14.80;99.20
1994;DHT22;998;49.906;10.908;2023-05-01T09:00:46;14.90;99.80
1994;DHT22;998;49.906;10.908;2023-05-01T09:03:14;14.90;99.10
1994;DHT22;998;49.906;10.908;2023-05-01T09:05:42;15.00;98.30
1994;DHT22;998;49.906;10.908;2023-05-01T09:08:09;15.00;97.50
1994;DHT22;998;49.906;10.908;2023-05-01T09:10:40;14.90;97.40
1994;DHT22;998;49.906;10.908;2023-05-01T09:13:08;15.00;97.80
1994;DHT22;998;49.906;10.908;2023-05-01T09:15:36;15.10;97.60
1994;DHT22;998;49.906;10.908;2023-05-01T09:18:05;15.10;97.30
1994;DHT22;998;49.906;10.908;2023-05-01T09:20:35;15.10;97.40
1994;DHT22;998;49.906;10.908;2023-05-01T09:23:02;15.10;98.20
1994;DHT22;998;49.906;10.908;2023-05-01T09:25:30;15.20;98.70
1994;DHT22;998;49.906;10.908;2023-05-01T09:27:57;15.20;96.70
1994;DHT22;998;49.906;10.908;2023-05-01T09:30:31;15.30;97.20
1994;DHT22;998;49.906;10.908;2023-05-01T09:33:05;15.40;98.00
1994;DHT22;998;49.906;10.908;2023-05-01T09:35:47;15.40;96.60
1994;DHT22;998;49.906;10.908;2023-05-01T09:38:17;15.40;95.70
1994;DHT22;998;49.906;10.908;2023-05-01T09:40:44;15.30;96.60
1994;DHT22;998;49.906;10.908;2023-05-01T09:43:11;15.30;97.20
1994;DHT22;998;49.906;10.908;2023-05-01T09:45:38;15.40;96.50
1994;DHT22;998;49.906;10.908;2023-05-01T09:48:09;15.50;97.30
1994;DHT22;998;49.906;10.908;2023-05-01T09:50:38;15.50;96.40
1994;DHT22;998;49.906;10.908;2023-05-01T09:53:07;15.60;96.20
1994;DHT22;998;49.906;10.908;2023-05-01T09:55:35;15.70;97.40
1994;DHT22;998;49.906;10.908;2023-05-01T09:58:03;15.70;97.50
1994;DHT22;998;49.906;10.908;2023-05-01T10:00:31;15.60;97.00
1994;DHT22;998;49.906;10.908;2023-05-01T10:03:13;15.50;97.30
1994;DHT22;998;49.906;10.908;2023-05-01T10:05:43;15.50;97.00
1994;DHT22;998;49.906;10.908;2023-05-01T10:08:11;15.50;96.60
1994;DHT22;998;49.906;10.908;2023-05-01T10:10:40;15.60;97.20
1994;DHT22;998;49.906;10.908;2023-05-01T10:13:15;15.70;97.10
1994;DHT22;998;49.906;10.908;2023-05-01T10:15:44;15.80;96.80
1994;DHT22;998;49.906;10.908;2023-05-01T10:18:13;15.70;96.70
1994;DHT22;998;49.906;10.908;2023-05-01T10:20:41;15.70;95.60
1994;DHT22;998;49.906;10.908;2023-05-01T10:23:09;15.70;95.30
1994;DHT22;998;49.906;10.908;2023-05-01T10:25:36;15.60;97.10
1994;DHT22;998;49.906;10.908;2023-05-01T10:28:04;15.60;98.20
1994;DHT22;998;49.906;10.908;2023-05-01T10:30:33;15.50;96.40
1994;DHT22;998;49.906;10.908;2023-05-01T10:33:02;15.50;97.70
1994;DHT22;998;49.906;10.908;2023-05-01T10:35:34;15.60;96.30
1994;DHT22;998;49.906;10.908;2023-05-01T10:38:05;15.60;97.60
1994;DHT22;998;49.906;10.908;2023-05-01T10:40:46;15.50;97.80
1994;DHT22;998;49.906;10.908;2023-05-01T10:43:18;15.40;97.90
1994;DHT22;998;49.906;10.908;2023-05-01T10:45:51;15.50;97.40
1994;DHT22;998;49.906;10.908;2023-05-01T10:48:58;15.50;98.00
1994;DHT22;998;49.906;10.908;2023-05-01T10:51:27;15.40;97.10
1994;DHT22;998;49.906;10.908;2023-05-01T10:54:22;15.50;97.70
1994;DHT22;998;49.906;10.908;2023-05-01T10:56:53;15.40;97.50
1994;DHT22;998;49.906;10.908;2023-05-01T10:59:21;15.40;98.10
1994;DHT22;998;49.906;10.908;2023-05-01T11:01:51;15.40;97.90
1994;DHT22;998;49.906;10.908;2023-05-01T11:04:48;15.40;97.60
1994;DHT22;998;49.906;10.908;2023-05-01T11:07:20;15.30;97.60
1994;DHT22;998;49.906;10.908;2023-05-01T11:09:49;15.30;96.40
1994;DHT22;998;49.906;10.908;2023-05-01T11:12:48;15.30;96.40
1994;DHT22;998;49.906;10.908;2023-05-01T11:15:30;15.40;96.20
1994;DHT22;998;49.906;10.908;2023-05-01T11:17:59;15.30;97.30
1994;DHT22;998;49.906;10.908;2023-05-01T11:20:46;15.30;97.40
1994;DHT22;998;49.906;10.908;2023-05-01T11:23:22;15.40;95.40
1994;DHT22;998;49.906;10.908;2023-05-01T11:26:03;15.40;96.20
1994;DHT22;998;49.906;10.908;2023-05-01T11:28:33;15.30;95.90
1994;DHT22;998;49.906;10.908;2023-05-01T11:31:01;15.30;96.50
1994;DHT22;998;49.906;10.908;2023-05-01T11:33:30;15.30;95.70
1994;DHT22;998;49.906;10.908;2023-05-01T11:35:58;15.30;96.80
1994;DHT22;998;49.906;10.908;2023-05-01T11:38:27;15.30;96.40
1994;DHT22;998;49.906;10.908;2023-05-01T11:40:57;15.30;95.90
1994;DHT22;998;49.906;10.908;2023-05-01T11:43:25;15.30;95.40
1994;DHT22;998;49.906;10.908;2023-05-01T11:45:53;15.30;96.00
1994;DHT22;998;49.906;10.908;2023-05-01T11:48:27;15.30;95.40
1994;DHT22;998;49.906;10.908;2023-05-01T11:50:55;15.30;95.20
1994;DHT22;998;49.906;10.908;2023-05-01T11:53:23;15.30;95.40
1994;DHT22;998;49.906;10.908;2023-05-01T11:55:51;15.30;95.10
1994;DHT22;998;49.906;10.908;2023-05-01T11:58:30;15.30;96.20
1994;DHT22;998;49.906;10.908;2023-05-01T12:00:58;15.20;96.10
1994;DHT22;998;49.906;10.908;2023-05-01T12:03:26;15.20;97.00
1994;DHT22;998;49.906;10.908;2023-05-01T12:05:54;15.20;98.40
1994;DHT22;998;49.906;10.908;2023-05-01T12:08:22;15.10;98.60
1994;DHT22;998;49.906;10.908;2023-05-01T12:10:53;15.10;99.80
1994;DHT22;998;49.906;10.908;2023-05-01T12:13:22;15.10;99.90
1994;DHT22;998;49.906;10.908;2023-05-01T12:15:52;15.00;99.90
1994;DHT22;998;49.906;10.908;2023-05-01T12:18:20;15.00;99.90
1994;DHT22;998;49.906;10.908;2023-05-01T12:20:49;14.90;99.90
1994;DHT22;998;49.906;10.908;2023-05-01T12:23:17;14.90;99.90
1994;DHT22;998;49.906;10.908;2023-05-01T12:25:45;14.80;99.90
1994;DHT22;998;49.906;10.908;2023-05-01T12:28:15;14.70;99.90
1994;DHT22;998;49.906;10.908;2023-05-01T12:30:44;14.70;99.90
1994;DHT22;998;49.906;10.908;2023-05-01T12:33:12;14.60;99.90
1994;DHT22;998;49.906;10.908;2023-05-01T12:35:40;14.60;99.90
1994;DHT22;998;49.906;10.908;2023-05-01T12:38:11;14.50;99.90
1994;DHT22;998;49.906;10.908;2023-05-01T12:40:39;14.50;99.90
1994;DHT22;998;49.906;10.908;2023-05-01T12:43:07;14.50;99.90
1994;DHT22;998;49.906;10.908;2023-05-01T12:45:39;14.50;99.90
1994;DHT22;998;49.906;10.908;2023-05-01T12:48:12;14.40;99.90
1994;DHT22;998;49.906;10.908;2023-05-01T12:50:40;14.10;99.90
1994;DHT22;998;49.906;10.908;2023-05-01T12:53:08;14.10;99.90
1994;DHT22;998;49.906;10.908;2023-05-01T12:55:45;14.20;99.90
1994;DHT22;998;49.906;10.908;2023-05-01T12:58:12;14.10;99.90
1994;DHT22;998;49.906;10.908;2023-05-01T13:00:47;14.00;99.90
1994;DHT22;998;49.906;10.908;2023-05-01T13:03:14;13.90;99.90
1994;DHT22;998;49.906;10.908;2023-05-01T13:05:52;14.00;99.90
1994;DHT22;998;49.906;10.908;2023-05-01T13:08:27;14.10;99.90
1994;DHT22;998;49.906;10.908;2023-05-01T13:10:56;14.10;99.90
1994;DHT22;998;49.906;10.908;2023-05-01T13:13:27;14.00;99.90
1994;DHT22;998;49.906;10.908;2023-05-01T13:16:07;14.00;99.90
1994;DHT22;998;49.906;10.908;2023-05-01T13:18:44;14.00;99.90
1994;DHT22;998;49.906;10.908;2023-05-01T13:21:13;14.10;99.90
1994;DHT22;998;49.906;10.908;2023-05-01T13:23:50;14.10;99.90
1994;DHT22;998;49.906;10.908;2023-05-01T13:26:22;14.10;99.90
1994;DHT22;998;49.906;10.908;2023-05-01T13:28:51;14.10;99.90
1994;DHT22;998;49.906;10.908;2023-05-01T13:31:20;14.10;99.90
1994;DHT22;998;49.906;10.908;2023-05-01T13:33:49;14.10;99.90
1994;DHT22;998;49.906;10.908;2023-05-01T13:36:17;14.10;99.90
1994;DHT22;998;49.906;10.908;2023-05-01T13:38:46;14.00;99.90
1994;DHT22;998;49.906;10.908;2023-05-01T13:41:16;13.90;99.90
1994;DHT22;998;49.906;10.908;2023-05-01T13:43:44;13.90;99.90
1994;DHT22;998;49.906;10.908;2023-05-01T13:46:13;13.90;99.90
1994;DHT22;998;49.906;10.908;2023-05-01T13:48:44;14.00;99.90
1994;DHT22;998;49.906;10.908;2023-05-01T13:51:13;13.90;99.90
1994;DHT22;998;49.906;10.908;2023-05-01T13:53:41;13.90;99.90
1994;DHT22;998;49.906;10.908;2023-05-01T13:56:09;13.80;99.90
1994;DHT22;998;49.906;10.908;2023-05-01T13:58:38;13.80;99.90
1994;DHT22;998;49.906;10.908;2023-05-01T14:01:11;13.90;99.90
1994;DHT22;998;49.906;10.908;2023-05-01T14:03:41;13.80;99.90
1994;DHT22;998;49.906;10.908;2023-05-01T14:06:12;13.80;99.90
1994;DHT22;998;49.906;10.908;2023-05-01T14:08:40;13.70;99.90
1994;DHT22;998;49.906;10.908;2023-05-01T14:11:09;13.80;99.90
1994;DHT22;998;49.906;10.908;2023-05-01T14:13:39;13.80;99.90
1994;DHT22;998;49.906;10.908;2023-05-01T14:16:08;13.80;99.90
1994;DHT22;998;49.906;10.908;2023-05-01T14:18:42;13.80;99.90
1994;DHT22;998;49.906;10.908;2023-05-01T14:21:13;13.90;99.90
1994;DHT22;998;49.906;10.908;2023-05-01T14:23:41;13.90;99.90
1994;DHT22;998;49.906;10.908;2023-05-01T14:26:08;13.90;99.90
1994;DHT22;998;49.906;10.908;2023-05-01T14:28:40;14.00;99.90
1994;DHT22;998;49.906;10.908;2023-05-01T14:31:14;13.90;99.90
1994;DHT22;998;49.906;10.908;2023-05-01T14:33:43;13.80;99.90
1994;DHT22;998;49.906;10.908;2023-05-01T14:36:12;13.80;99.90
1994;DHT22;998;49.906;10.908;2023-05-01T14:38:41;13.80;99.90
1994;DHT22;998;49.906;10.908;2023-05-01T14:41:11;13.90;99.90
1994;DHT22;998;49.906;10.908;2023-05-01T14:43:40;14.00;99.90
1994;DHT22;998;49.906;10.908;2023-05-01T14:46:11;14.00;99.90
1994;DHT22;998;49.906;10.908;2023-05-01T14:48:40;14.00;99.90
1994;DHT22;998;49.906;10.908;2023-05-01T14:51:09;14.00;99.90
1994;DHT22;998;49.906;10.908;2023-05-01T14:53:39;14.00;99.90
1994;DHT22;998;49.906;10.908;2023-05-01T14:56:08;14.00;99.90
1994;DHT22;998;49.906;10.908;2023-05-01T14:58:36;14.00;99.90
1994;DHT22;998;49.906;10.908;2023-05-01T15:01:03;14.00;99.90
1994;DHT22;998;49.906;10.908;2023-05-01T15:03:33;14.00;99.90
1994;DHT22;998;49.906;10.908;2023-05-01T15:06:05;14.00;99.90
1994;DHT22;998;49.906;10.908;2023-05-01T15:08:32;14.00;99.90
1994;DHT22;998;49.906;10.908;2023-05-01T15:11:00;14.00;99.90
1994;DHT22;998;49.906;10.908;2023-05-01T15:13:28;14.00;99.90
1994;DHT22;998;49.906;10.908;2023-05-01T15:15:59;13.90;99.90
1994;DHT22;998;49.906;10.908;2023-05-01T15:18:26;14.00;99.90
1994;DHT22;998;49.906;10.908;2023-05-01T15:20:54;14.00;99.90
1994;DHT22;998;49.906;10.908;2023-05-01T15:23:21;14.00;99.90
1994;DHT22;998;49.906;10.908;2023-05-01T15:25:49;14.10;99.90
1994;DHT22;998;49.906;10.908;2023-05-01T15:28:17;14.10;99.90
1994;DHT22;998;49.906;10.908;2023-05-01T15:30:50;14.00;99.90
1994;DHT22;998;49.906;10.908;2023-05-01T15:33:26;14.10;99.90
1994;DHT22;998;49.906;10.908;2023-05-01T15:35:53;14.10;99.90
1994;DHT22;998;49.906;10.908;2023-05-01T15:38:23;14.10;99.90
1994;DHT22;998;49.906;10.908;2023-05-01T15:40:52;14.10;99.90
1994;DHT22;998;49.906;10.908;2023-05-01T15:43:20;14.10;99.90
1994;DHT22;998;49.906;10.908;2023-05-01T15:45:48;14.10;99.90
1994;DHT22;998;49.906;10.908;2023-05-01T15:48:15;14.10;99.90
1994;DHT22;998;49.906;10.908;2023-05-01T15:50:43;14.10;99.90
1994;DHT22;998;49.906;10.908;2023-05-01T15:53:10;14.10;99.90
1994;DHT22;998;49.906;10.908;2023-05-01T15:55:42;14.00;99.90
1994;DHT22;998;49.906;10.908;2023-05-01T15:58:12;14.10;99.90
1994;DHT22;998;49.906;10.908;2023-05-01T16:00:40;14.20;99.90
1994;DHT22;998;49.906;10.908;2023-05-01T16:03:07;14.20;99.90
1994;DHT22;998;49.906;10.908;2023-05-01T16:05:35;14.20;99.90
1994;DHT22;998;49.906;10.908;2023-05-01T16:08:04;14.20;99.90
1994;DHT22;998;49.906;10.908;2023-05-01T16:10:31;14.20;99.90
1994;DHT22;998;49.906;10.908;2023-05-01T16:13:01;14.10;99.90
1994;DHT22;998;49.906;10.908;2023-05-01T16:15:29;14.10;99.90
1994;DHT22;998;49.906;10.908;2023-05-01T16:18:00;14.20;99.90
1994;DHT22;998;49.906;10.908;2023-05-01T16:20:29;14.20;99.90